Leyland, United Kingdom

6:42 AM GMT on February 09, 2016 (GMT +0000)
Lindsay Avenue | | Change Station
CLOSE
Current Station
Personal Weather Station
Location: LEYLAND, LANCASHIRE
Elevation: 154 ft
Nearby Weather Stations

Elev 154 ft 53.69 °N, 2.69 °W | Updated 8 hours ago

Mostly Cloudy
Mostly Cloudy
35 °F
Feels Like 27 °F
N
14
Wind Variable Wind from WSW
Gusts 22 mph

Today
High -- | Low -- °F
--% Chance of Precip.
Yesterday
High -- | Low -- °F
Precip. -- in
Pressure 29.06 in
Visibility 6.2 miles
Clouds Few 2500 ft
Windchill 27 °F
Dew Point 31 °F
Humidity 86%
Rainfall in
Snow Depth Not available.
7:43 AM 5:07 PM
New Moon, 1% visible
METAR EGCC 090620Z 20010KT 9999 FEW025 02/M00 Q0984 NOSIG
Pressure 29.06 in
Visibility 6.2 miles
Clouds Few 2500 ft
Windchill 27 °F
Dew Point 31 °F
Humidity 86%
Rainfall in
Snow Depth Not available.
7:43 AM 5:07 PM
New Moon, 1% visible
METAR EGCC 090620Z 20010KT 9999 FEW025 02/M00 Q0984 NOSIG

10-Day Weather Forecast

Almanac

Astronomy

Feb. 09, 2016 Rise Set
Actual Time
Civil Twilight
Nautical Twilight
Astronomical Twilight
Moon
Length of Visible Light
Length of Day
Tomorrow will be .
, % of the Moon is Illuminated

Today's Extremes

Country Highs Country Lows

Community

WunderPhotos

Upload Photos

1,891,571 photos uploaded!

WunderBlog® & News

Nearby

Air Quality

  Air Quality AQ Index Pollutant
Not available.

Snow Depth

Station Depth Elevation

Earthquake Activity

City Distance Mag. Time & Date
Minimum magnitude displayed is 2.5.

Coastal Water Temperatures

Place Temperature

Stations

Nearby Weather Stations

Station Location Temp. Windchill Dew Point Humidity Wind Precip. Elev Updated Type